createdAt,value
2024-02-02T00:03:08.753Z,15.77
2024-02-02T00:07:10.720Z,14.93
2024-02-02T00:11:13.143Z,14.40
2024-02-02T00:15:14.959Z,8.05
2024-02-02T00:20:06.638Z,15.93
2024-02-02T00:24:08.698Z,15.35
2024-02-02T00:28:10.531Z,11.00
2024-02-02T00:32:16.015Z,13.88
2024-02-02T00:36:17.939Z,9.93
2024-02-02T00:40:21.035Z,12.88
2024-02-02T00:44:22.983Z,6.78
2024-02-02T00:48:24.898Z,12.23
2024-02-02T00:52:26.816Z,13.70
2024-02-02T00:56:28.687Z,10.05
2024-02-02T01:00:30.750Z,11.13
2024-02-02T01:04:32.649Z,14.48
2024-02-02T01:08:34.476Z,10.48
2024-02-02T01:12:36.618Z,11.02
2024-02-02T01:16:38.466Z,8.38
2024-02-02T01:20:40.294Z,8.13
2024-02-02T01:24:42.100Z,9.75
2024-02-02T01:28:43.906Z,10.63
2024-02-02T01:32:45.777Z,11.32
2024-02-02T01:36:47.488Z,12.57
2024-02-02T01:40:49.501Z,10.90
2024-02-02T01:44:51.688Z,12.07
2024-02-02T01:48:53.761Z,14.93
2024-02-02T01:53:01.780Z,10.63
2024-02-02T02:02:13.913Z,13.55
2024-02-02T02:06:15.784Z,10.82
2024-02-02T02:10:19.091Z,11.93
2024-02-02T02:14:21.043Z,12.48
2024-02-02T02:18:22.993Z,14.60
2024-02-02T02:22:24.821Z,9.65
2024-02-02T02:26:29.617Z,10.43
2024-02-02T02:30:31.459Z,12.65
2024-02-02T02:34:33.459Z,14.55
2024-02-02T02:38:36.343Z,9.15
2024-02-02T02:42:38.171Z,12.85
2024-02-02T02:46:40.770Z,17.02
2024-02-02T02:50:42.582Z,13.32
2024-02-02T02:54:44.501Z,10.25
2024-02-02T02:58:46.211Z,12.48
2024-02-02T03:02:48.022Z,12.75
2024-02-02T03:06:49.944Z,13.55
2024-02-02T03:10:51.740Z,8.32
2024-02-02T03:14:53.556Z,12.77
2024-02-02T03:18:55.546Z,9.35
2024-02-02T03:22:57.377Z,12.77
2024-02-02T03:26:59.097Z,12.95
2024-02-02T03:31:00.909Z,9.10
2024-02-02T03:35:02.752Z,14.80
2024-02-02T03:39:04.865Z,10.52
2024-02-02T03:43:06.677Z,10.30
2024-02-02T03:47:26.698Z,12.95
2024-02-02T03:51:28.513Z,11.45
2024-02-02T03:55:30.624Z,12.25
2024-02-02T03:59:32.716Z,11.40
2024-02-02T04:03:35.007Z,9.35
2024-02-02T04:07:37.155Z,7.47
2024-02-02T04:11:38.969Z,13.30
2024-02-02T04:15:41.202Z,12.60
2024-02-02T04:19:43.214Z,12.93
2024-02-02T04:23:44.997Z,9.32
2024-02-02T04:27:47.109Z,11.57
2024-02-02T04:31:48.848Z,11.93
2024-02-02T04:35:50.694Z,10.27
2024-02-02T04:39:52.490Z,12.45
2024-02-02T04:43:54.292Z,9.55
2024-02-02T04:47:56.395Z,14.05
2024-02-02T04:51:58.234Z,9.45
2024-02-02T04:56:00.293Z,16.55
2024-02-02T05:00:02.832Z,11.05
2024-02-02T05:04:05.040Z,9.68
2024-02-02T05:08:07.195Z,7.63
2024-02-02T05:12:09.109Z,9.48
2024-02-02T05:16:14.378Z,7.63
2024-02-02T05:20:17.344Z,8.82
2024-02-02T05:24:33.013Z,13.60
2024-02-02T05:28:41.567Z,7.57
2024-02-02T05:32:43.528Z,14.65
2024-02-02T05:36:46.119Z,8.15
2024-02-02T05:40:47.911Z,9.35
2024-02-02T05:44:49.947Z,7.45
2024-02-02T05:54:13.461Z,12.30
2024-02-02T05:58:15.251Z,9.65
2024-02-02T06:02:17.074Z,10.55
2024-02-02T06:06:19.056Z,9.30
2024-02-02T06:10:20.844Z,17.23
2024-02-02T06:14:26.437Z,10.82
2024-02-02T06:18:28.375Z,10.13
2024-02-02T06:22:30.325Z,13.57
2024-02-02T06:26:32.222Z,14.40
2024-02-02T06:30:34.194Z,10.75
2024-02-02T06:34:37.284Z,16.27
2024-02-02T06:38:39.122Z,12.73
2024-02-02T06:42:41.018Z,9.95
2024-02-02T06:46:42.753Z,22.35
2024-02-02T06:50:45.653Z,8.25
2024-02-02T06:54:47.567Z,9.50
2024-02-02T06:58:50.563Z,12.43
2024-02-02T07:02:52.334Z,15.05
2024-02-02T07:06:54.222Z,12.98
2024-02-02T07:11:14.352Z,12.30
2024-02-02T07:15:19.008Z,10.23
2024-02-02T07:19:38.950Z,14.73
2024-02-02T07:23:42.466Z,14.77
2024-02-02T07:27:57.559Z,10.43
2024-02-02T07:32:02.776Z,8.02
2024-02-02T07:36:06.098Z,18.00
2024-02-02T07:40:59.384Z,16.35
2024-02-02T07:45:01.191Z,12.95
2024-02-02T07:49:04.917Z,9.15
2024-02-02T07:53:06.693Z,11.27
2024-02-02T07:57:08.437Z,16.73
2024-02-02T08:01:11.529Z,16.30
2024-02-02T08:05:13.601Z,15.77
2024-02-02T08:09:15.508Z,16.83
2024-02-02T08:13:17.766Z,14.95
2024-02-02T08:17:19.716Z,13.70
2024-02-02T08:21:22.345Z,15.20
2024-02-02T08:25:24.167Z,13.23
2024-02-02T08:29:26.014Z,12.63
2024-02-02T08:33:27.904Z,9.65
2024-02-02T08:37:30.049Z,17.98
2024-02-02T08:41:32.054Z,13.32
2024-02-02T08:45:43.565Z,12.45
2024-02-02T08:49:59.903Z,13.40
2024-02-02T08:54:16.790Z,15.05
2024-02-02T08:58:28.719Z,16.73
2024-02-02T09:02:36.555Z,17.48
2024-02-02T09:06:41.291Z,20.48
2024-02-02T09:10:46.048Z,21.98
2024-02-02T09:14:47.836Z,12.82
2024-02-02T09:18:57.055Z,13.40
2024-02-02T09:23:00.362Z,11.88
2024-02-02T09:27:03.020Z,13.02
2024-02-02T09:31:07.798Z,24.73
2024-02-02T09:35:29.495Z,16.05
2024-02-02T09:39:51.611Z,9.80
2024-02-02T09:44:10.972Z,15.55
2024-02-02T09:48:24.787Z,19.75
2024-02-02T09:52:39.480Z,17.52
2024-02-02T09:56:41.219Z,14.27
2024-02-02T10:00:43.148Z,20.10
2024-02-02T10:05:23.543Z,11.73
2024-02-02T10:09:52.973Z,14.05
2024-02-02T10:14:00.534Z,18.27
2024-02-02T10:18:27.098Z,17.80
2024-02-02T10:22:51.605Z,23.20
2024-02-02T10:27:15.830Z,16.35
2024-02-02T10:31:39.754Z,17.10
2024-02-02T10:36:05.747Z,18.20
2024-02-02T10:40:12.081Z,17.80
2024-02-02T10:44:35.772Z,19.15
2024-02-02T10:48:41.015Z,19.88
2024-02-02T10:52:55.058Z,20.77
2024-02-02T10:57:19.001Z,19.45
2024-02-02T11:01:32.858Z,23.80
2024-02-02T11:05:56.795Z,20.77
2024-02-02T11:10:06.417Z,23.73
2024-02-02T11:14:16.493Z,25.05
2024-02-02T11:18:42.571Z,19.13
2024-02-02T11:22:55.654Z,21.80
2024-02-02T11:27:16.444Z,21.42
2024-02-02T11:31:41.757Z,21.35
2024-02-02T11:36:10.081Z,22.67
2024-02-02T11:40:13.330Z,17.13
2024-02-02T11:44:16.544Z,23.85
2024-02-02T11:48:40.318Z,20.08
2024-02-02T11:52:43.498Z,22.15
2024-02-02T11:56:49.658Z,23.80
2024-02-02T12:01:13.570Z,24.25
2024-02-02T12:05:21.310Z,25.02
2024-02-02T12:09:33.232Z,20.20
2024-02-02T12:13:38.122Z,24.70
2024-02-02T12:17:40.092Z,22.95
2024-02-02T12:21:41.866Z,21.48
2024-02-02T12:25:43.673Z,21.05
2024-02-02T12:29:45.843Z,19.35
2024-02-02T12:33:47.869Z,18.35
2024-02-02T12:37:51.794Z,19.90
2024-02-02T12:41:56.929Z,14.82
2024-02-02T12:45:58.792Z,22.92
2024-02-02T12:50:01.456Z,17.45
2024-02-02T12:54:03.966Z,16.23
2024-02-02T12:58:06.587Z,12.30
2024-02-02T13:02:08.625Z,15.43
2024-02-02T13:06:12.129Z,17.70
2024-02-02T13:10:14.026Z,11.93
2024-02-02T13:14:30.229Z,12.68
2024-02-02T13:18:37.084Z,11.60
2024-02-02T13:22:39.123Z,11.80
2024-02-02T13:26:42.559Z,12.63
2024-02-02T13:31:05.857Z,14.45
2024-02-02T13:35:11.636Z,10.25
2024-02-02T13:39:20.190Z,9.02
2024-02-02T13:43:22.889Z,10.32
2024-02-02T13:47:25.523Z,7.25
2024-02-02T13:51:29.744Z,12.85
2024-02-02T13:55:32.600Z,12.32
2024-02-02T13:59:34.672Z,10.70
2024-02-02T14:03:36.645Z,9.80
2024-02-02T14:07:39.293Z,9.02
2024-02-02T14:11:41.267Z,11.50
2024-02-02T14:15:43.281Z,10.52
2024-02-02T14:19:45.300Z,10.50
2024-02-02T14:23:47.084Z,9.13
2024-02-02T14:27:49.017Z,12.40
2024-02-02T14:31:59.098Z,8.85
2024-02-02T14:36:02.865Z,13.85
2024-02-02T14:40:05.339Z,11.27
2024-02-02T14:44:07.151Z,9.68
2024-02-02T14:48:09.218Z,9.73
2024-02-02T14:52:11.080Z,9.85
2024-02-02T14:56:13.316Z,8.82
2024-02-02T15:00:30.788Z,11.93
2024-02-02T15:04:33.393Z,12.77
2024-02-02T15:08:35.750Z,11.75
2024-02-02T15:12:37.736Z,10.70
2024-02-02T15:16:39.668Z,11.68
2024-02-02T15:20:41.599Z,10.90
2024-02-02T15:24:43.460Z,11.00
2024-02-02T15:28:45.266Z,9.02
2024-02-02T15:32:47.254Z,11.65
2024-02-02T15:36:49.194Z,11.40
2024-02-02T15:40:51.179Z,11.38
2024-02-02T15:44:54.113Z,11.82
2024-02-02T15:48:56.263Z,11.70
2024-02-02T15:53:00.196Z,10.70
2024-02-02T15:57:03.665Z,11.43
2024-02-02T16:01:05.571Z,8.63
2024-02-02T16:05:07.639Z,9.45
2024-02-02T16:09:13.292Z,13.40
2024-02-02T16:13:15.377Z,12.65
2024-02-02T16:17:17.176Z,13.30
2024-02-02T16:21:19.314Z,15.05
2024-02-02T16:25:22.206Z,14.77
2024-02-02T16:29:23.989Z,15.43
2024-02-02T16:33:25.913Z,16.52
2024-02-02T16:37:27.762Z,13.57
2024-02-02T16:41:29.611Z,11.27
2024-02-02T16:45:31.400Z,12.57
2024-02-02T16:49:33.449Z,10.98
2024-02-02T16:53:35.331Z,11.55
2024-02-02T16:57:39.546Z,11.20
2024-02-02T17:01:41.791Z,14.05
2024-02-02T17:05:43.586Z,11.35
2024-02-02T17:09:46.243Z,9.93
2024-02-02T17:13:48.657Z,10.30
2024-02-02T17:17:50.625Z,13.55
2024-02-02T17:21:52.623Z,13.82
2024-02-02T17:25:54.442Z,10.25
2024-02-02T17:29:56.405Z,16.65
2024-02-02T17:33:58.318Z,15.20
2024-02-02T17:38:00.139Z,15.00
2024-02-02T17:42:01.941Z,12.85
2024-02-02T17:46:06.517Z,12.85
2024-02-02T17:50:09.428Z,15.35
2024-02-02T17:54:11.397Z,12.57
2024-02-02T17:58:13.230Z,15.10
2024-02-02T18:02:15.297Z,12.60
2024-02-02T18:06:17.239Z,14.30
2024-02-02T18:10:19.087Z,11.88
2024-02-02T18:14:24.157Z,13.98
2024-02-02T18:18:27.358Z,12.57
2024-02-02T18:22:29.357Z,14.50
2024-02-02T18:26:31.178Z,15.43
2024-02-02T18:30:33.029Z,13.18
2024-02-02T18:34:37.664Z,13.52
2024-02-02T18:38:41.672Z,15.13
2024-02-02T18:42:43.631Z,12.63
2024-02-02T18:46:45.509Z,19.63
2024-02-02T18:50:47.313Z,14.02
2024-02-02T18:54:49.120Z,17.85
2024-02-02T18:58:51.026Z,19.80
2024-02-02T19:02:52.904Z,15.23
2024-02-02T19:06:54.874Z,15.15
2024-02-02T19:10:57.034Z,17.98
2024-02-02T19:14:59.808Z,19.27
2024-02-02T19:19:01.934Z,15.90
2024-02-02T19:23:04.308Z,18.30
2024-02-02T19:27:06.388Z,20.88
2024-02-02T19:31:08.713Z,16.77
2024-02-02T19:35:24.121Z,22.45
2024-02-02T19:39:25.975Z,20.10
2024-02-02T19:43:27.766Z,15.80
2024-02-02T19:47:29.664Z,17.48
2024-02-02T19:51:31.892Z,18.27
2024-02-02T19:55:33.863Z,14.60
2024-02-02T19:59:36.391Z,17.60
2024-02-02T20:03:38.158Z,19.08
2024-02-02T20:07:40.490Z,13.70
2024-02-02T20:11:42.380Z,18.23
2024-02-02T20:15:44.345Z,17.15
2024-02-02T20:19:46.424Z,19.05
2024-02-02T20:23:52.263Z,18.52
2024-02-02T20:27:54.062Z,17.55
2024-02-02T20:31:56.440Z,15.02
2024-02-02T20:35:58.313Z,16.38
2024-02-02T20:40:00.340Z,14.02
2024-02-02T20:44:02.360Z,14.50
2024-02-02T20:48:04.578Z,17.58
2024-02-02T20:52:06.818Z,16.75
2024-02-02T20:56:08.708Z,15.45
2024-02-02T21:00:12.702Z,18.15
2024-02-02T21:04:15.145Z,15.98
2024-02-02T21:08:17.094Z,18.80
2024-02-02T21:12:18.980Z,14.77
2024-02-02T21:16:20.808Z,15.88
2024-02-02T21:20:23.382Z,19.00
2024-02-02T21:24:25.189Z,14.10
2024-02-02T21:28:26.970Z,18.27
2024-02-02T21:32:28.834Z,14.57
2024-02-02T21:36:30.594Z,18.33
2024-02-02T21:40:32.558Z,15.63
2024-02-02T21:44:36.848Z,16.77
2024-02-02T21:48:38.794Z,15.82
2024-02-02T21:52:41.069Z,16.30
2024-02-02T21:56:43.466Z,18.52
2024-02-02T22:00:47.083Z,20.95
2024-02-02T22:04:53.894Z,21.48
2024-02-02T22:08:55.940Z,20.17
2024-02-02T22:12:57.746Z,21.48
2024-02-02T22:16:59.496Z,25.60
2024-02-02T22:21:01.260Z,21.60
2024-02-02T22:25:03.825Z,22.55
2024-02-02T22:29:05.859Z,19.17
2024-02-02T22:33:07.907Z,19.80
2024-02-02T22:37:09.738Z,18.10
2024-02-02T22:41:32.153Z,17.13
2024-02-02T22:45:36.031Z,18.83
2024-02-02T22:49:37.947Z,16.98
2024-02-02T22:53:40.568Z,20.13
2024-02-02T22:57:42.391Z,19.50
2024-02-02T23:01:44.254Z,15.43
2024-02-02T23:05:46.687Z,16.85
2024-02-02T23:09:48.768Z,19.70
2024-02-02T23:13:51.254Z,18.13
2024-02-02T23:17:53.053Z,16.98
2024-02-02T23:21:55.093Z,18.60
2024-02-02T23:25:57.104Z,15.07
2024-02-02T23:29:58.847Z,17.90
2024-02-02T23:34:00.801Z,18.23
2024-02-02T23:38:02.709Z,19.35
2024-02-02T23:42:04.844Z,15.05
2024-02-02T23:46:07.020Z,15.95
2024-02-02T23:50:09.723Z,12.38
2024-02-02T23:54:12.262Z,20.10
2024-02-02T23:58:14.074Z,18.48
